createdAt,value
2019-04-25T00:00:13.247Z,23.05
2019-04-25T00:01:49.113Z,23.47
2019-04-25T00:03:25.140Z,23.02
2019-04-25T00:04:59.348Z,29.25
2019-04-25T00:06:34.748Z,21.85
2019-04-25T00:08:11.463Z,28.67
2019-04-25T00:09:51.721Z,28.32
2019-04-25T00:11:26.674Z,28.65
2019-04-25T00:13:01.696Z,23.55
2019-04-25T00:14:38.071Z,26.27
2019-04-25T00:16:12.906Z,21.65
2019-04-25T00:17:47.144Z,23.80
2019-04-25T00:19:21.867Z,28.12
2019-04-25T00:20:57.887Z,17.67
2019-04-25T00:22:36.504Z,20.35
2019-04-25T00:24:18.655Z,23.10
2019-04-25T00:26:01.366Z,20.97
2019-04-25T00:27:35.840Z,21.55
2019-04-25T00:29:10.292Z,22.73
2019-04-25T00:30:44.692Z,22.05
2019-04-25T00:32:21.582Z,33.50
2019-04-25T00:33:56.145Z,17.85
2019-04-25T00:35:31.548Z,20.97
2019-04-25T00:37:07.644Z,21.33
2019-04-25T00:38:46.230Z,17.55
2019-04-25T00:40:18.324Z,20.10
2019-04-25T00:41:53.567Z,20.12
2019-04-25T00:43:28.702Z,19.25
2019-04-25T00:45:03.440Z,24.43
2019-04-25T00:46:37.672Z,22.13
2019-04-25T00:48:12.277Z,25.95
2019-04-25T00:49:46.668Z,21.20
2019-04-25T00:51:21.737Z,25.90
2019-04-25T00:52:56.136Z,27.02
2019-04-25T00:54:31.319Z,21.82
2019-04-25T00:56:05.649Z,27.62
2019-04-25T00:57:42.686Z,26.95
2019-04-25T00:59:32.093Z,22.40
2019-04-25T01:01:12.078Z,30.25
2019-04-25T01:02:49.584Z,20.92
2019-04-25T01:04:24.284Z,25.27
2019-04-25T01:05:58.537Z,25.35
2019-04-25T01:07:34.479Z,28.62
2019-04-25T01:09:10.366Z,22.50
2019-04-25T01:10:45.847Z,20.85
2019-04-25T01:12:21.583Z,17.62
2019-04-25T01:13:56.152Z,18.27
2019-04-25T01:15:31.442Z,22.50
2019-04-25T01:17:05.796Z,25.12
2019-04-25T01:18:40.024Z,17.82
2019-04-25T01:20:15.507Z,18.20
2019-04-25T01:21:49.760Z,22.80
2019-04-25T01:23:24.132Z,21.35
2019-04-25T01:24:58.370Z,22.32
2019-04-25T01:26:33.862Z,21.87
2019-04-25T01:28:08.182Z,23.67
2019-04-25T01:29:42.477Z,19.70
2019-04-25T01:31:18.497Z,22.60
2019-04-25T01:32:54.283Z,18.17
2019-04-25T01:34:34.252Z,15.48
2019-04-25T01:36:26.661Z,24.47
2019-04-25T01:38:11.669Z,18.50
2019-04-25T01:39:55.069Z,20.37
2019-04-25T01:41:31.280Z,20.85
2019-04-25T01:43:13.784Z,20.60
2019-04-25T01:44:50.112Z,18.35
2019-04-25T01:46:24.447Z,16.93
2019-04-25T01:47:58.665Z,16.12
2019-04-25T01:49:33.948Z,26.27
2019-04-25T01:51:08.548Z,20.60
2019-04-25T01:52:50.683Z,22.67
2019-04-25T01:54:26.445Z,21.42
2019-04-25T01:56:05.491Z,22.55
2019-04-25T01:57:36.713Z,21.52
2019-04-25T01:59:10.928Z,20.62
2019-04-25T02:00:51.345Z,17.75
2019-04-25T02:02:26.793Z,22.60
2019-04-25T02:04:03.256Z,18.42
2019-04-25T02:05:37.466Z,21.80
2019-04-25T02:07:13.435Z,23.57
2019-04-25T02:08:47.762Z,24.15
2019-04-25T02:10:23.399Z,22.05
2019-04-25T02:11:59.716Z,17.17
2019-04-25T02:13:35.783Z,17.12
2019-04-25T02:15:11.110Z,20.60
2019-04-25T02:16:45.388Z,21.70
2019-04-25T02:18:19.616Z,22.27
2019-04-25T02:19:55.499Z,19.95
2019-04-25T02:21:29.802Z,17.82
2019-04-25T02:23:04.455Z,19.10
2019-04-25T02:24:38.710Z,23.32
2019-04-25T02:26:18.178Z,20.08
2019-04-25T02:27:49.432Z,24.27
2019-04-25T02:29:23.703Z,21.57
2019-04-25T02:31:00.614Z,17.75
2019-04-25T02:32:36.784Z,16.67
2019-04-25T02:34:09.956Z,19.15
2019-04-25T02:35:46.659Z,24.18
2019-04-25T02:37:20.716Z,27.13
2019-04-25T02:38:58.531Z,29.25
2019-04-25T02:40:30.818Z,34.00
2019-04-25T02:42:07.881Z,24.77
2019-04-25T02:43:41.623Z,25.37
2019-04-25T02:45:24.531Z,26.73
2019-04-25T02:47:14.811Z,28.92
2019-04-25T02:49:02.636Z,23.75
2019-04-25T02:50:40.384Z,24.23
2019-04-25T02:52:24.455Z,25.43
2019-04-25T02:53:59.496Z,23.07
2019-04-25T02:55:36.884Z,21.05
2019-04-25T02:57:09.917Z,21.17
2019-04-25T02:58:44.451Z,20.97
2019-04-25T03:00:25.257Z,28.15
2019-04-25T03:02:00.749Z,24.70
2019-04-25T03:03:35.367Z,26.52
2019-04-25T03:05:10.176Z,28.02
2019-04-25T03:06:45.645Z,25.57
2019-04-25T03:08:20.084Z,28.23
2019-04-25T03:09:54.887Z,25.25
2019-04-25T03:11:29.332Z,22.17
2019-04-25T03:13:07.045Z,32.17
2019-04-25T03:14:39.829Z,29.12
2019-04-25T03:16:14.252Z,20.55
2019-04-25T03:17:49.302Z,21.97
2019-04-25T03:19:43.801Z,23.73
2019-04-25T03:21:18.985Z,22.87
2019-04-25T03:22:54.735Z,22.73
2019-04-25T03:24:29.117Z,21.85
2019-04-25T03:26:05.806Z,22.15
2019-04-25T03:27:40.168Z,23.85
2019-04-25T03:29:14.406Z,19.32
2019-04-25T03:30:48.690Z,18.35
2019-04-25T03:32:27.996Z,22.60
2019-04-25T03:33:58.794Z,25.15
2019-04-25T03:35:33.256Z,24.15
2019-04-25T03:37:07.711Z,20.62
2019-04-25T03:38:42.131Z,23.60
2019-04-25T03:40:16.384Z,27.07
2019-04-25T03:41:50.612Z,23.18
2019-04-25T03:43:24.880Z,29.40
2019-04-25T03:44:59.624Z,21.10
2019-04-25T03:46:34.133Z,23.45
2019-04-25T03:48:08.385Z,26.65
2019-04-25T03:49:43.462Z,18.10
2019-04-25T03:51:17.994Z,26.10
2019-04-25T03:52:53.925Z,22.73
2019-04-25T03:54:28.265Z,22.35
2019-04-25T03:56:04.474Z,22.40
2019-04-25T03:57:38.412Z,28.35
2019-04-25T03:59:14.692Z,25.32
2019-04-25T04:00:48.507Z,31.35
2019-04-25T04:02:23.511Z,25.30
2019-04-25T04:03:57.917Z,30.85
2019-04-25T04:05:32.142Z,28.20
2019-04-25T04:07:08.812Z,35.38
2019-04-25T04:08:42.243Z,29.15
2019-04-25T04:10:16.500Z,34.05
2019-04-25T04:11:50.725Z,28.85
2019-04-25T04:13:25.021Z,34.53
2019-04-25T04:14:59.304Z,32.73
2019-04-25T04:16:35.468Z,32.50
2019-04-25T04:18:11.339Z,38.13
2019-04-25T04:19:47.201Z,36.63
2019-04-25T04:21:23.570Z,36.88
2019-04-25T04:23:09.230Z,42.48
2019-04-25T04:24:45.060Z,40.48
2019-04-25T04:26:19.448Z,29.52
2019-04-25T04:27:54.353Z,26.65
2019-04-25T04:29:29.250Z,28.52
2019-04-25T04:31:03.744Z,25.55
2019-04-25T04:32:38.233Z,24.95
2019-04-25T04:34:14.345Z,26.85
2019-04-25T04:35:48.372Z,22.85
2019-04-25T04:37:24.453Z,21.40
2019-04-25T04:38:58.676Z,25.72
2019-04-25T04:40:36.145Z,15.78
2019-04-25T04:42:10.317Z,27.82
2019-04-25T04:43:44.622Z,24.55
2019-04-25T04:45:18.852Z,28.42
2019-04-25T04:46:53.827Z,21.77
2019-04-25T04:48:28.156Z,24.45
2019-04-25T04:50:03.895Z,17.30
2019-04-25T04:51:38.172Z,19.20
2019-04-25T04:53:14.712Z,26.23
2019-04-25T04:54:48.311Z,16.48
2019-04-25T04:56:23.962Z,19.67
2019-04-25T04:57:58.424Z,26.55
2019-04-25T04:59:33.733Z,18.65
2019-04-25T05:01:08.177Z,16.25
2019-04-25T05:02:59.762Z,19.35
2019-04-25T05:04:41.441Z,20.60
2019-04-25T05:06:17.409Z,20.43
2019-04-25T05:07:53.911Z,23.83
2019-04-25T05:09:28.514Z,18.77
2019-04-25T05:11:04.051Z,18.85
2019-04-25T05:12:38.420Z,26.37
2019-04-25T05:14:14.741Z,26.33
2019-04-25T05:15:48.524Z,23.70
2019-04-25T05:17:23.728Z,25.37
2019-04-25T05:18:58.965Z,18.40
2019-04-25T05:20:34.192Z,21.50
2019-04-25T05:22:09.101Z,24.95
2019-04-25T05:23:44.310Z,20.12
2019-04-25T05:25:19.133Z,19.35
2019-04-25T05:26:54.008Z,20.12
2019-04-25T05:28:28.273Z,24.32
2019-04-25T05:30:04.018Z,20.97
2019-04-25T05:31:40.045Z,17.32
2019-04-25T05:33:17.617Z,20.12
2019-04-25T05:34:53.252Z,24.47
2019-04-25T05:36:29.404Z,23.85
2019-04-25T05:38:03.637Z,27.20
2019-04-25T05:39:37.904Z,19.15
2019-04-25T05:41:16.894Z,24.63
2019-04-25T05:42:54.237Z,24.23
2019-04-25T05:44:28.547Z,27.17
2019-04-25T05:46:04.327Z,20.48
2019-04-25T05:47:38.944Z,23.47
2019-04-25T05:49:13.810Z,26.52
2019-04-25T05:50:48.964Z,22.82
2019-04-25T05:52:24.282Z,31.68
2019-04-25T05:53:59.101Z,24.92
2019-04-25T05:55:34.194Z,24.00
2019-04-25T05:57:08.652Z,24.12
2019-04-25T05:58:43.929Z,28.38
2019-04-25T06:00:19.032Z,27.77
2019-04-25T06:01:53.828Z,22.80
2019-04-25T06:03:28.277Z,23.07
2019-04-25T06:05:03.586Z,25.00
2019-04-25T06:06:38.476Z,29.48
2019-04-25T06:08:14.154Z,27.98
2019-04-25T06:09:50.260Z,23.00
2019-04-25T06:11:33.549Z,26.95
2019-04-25T06:13:15.434Z,30.30
2019-04-25T06:14:49.716Z,26.37
2019-04-25T06:16:27.052Z,25.10
2019-04-25T06:18:06.101Z,19.50
2019-04-25T06:19:43.438Z,28.67
2019-04-25T06:21:18.019Z,20.97
2019-04-25T06:23:10.632Z,26.95
2019-04-25T06:24:46.508Z,24.70
2019-04-25T06:26:31.864Z,24.98
2019-04-25T06:28:01.436Z,19.32
2019-04-25T06:29:35.676Z,24.27
2019-04-25T06:31:10.478Z,24.40
2019-04-25T06:32:44.933Z,21.37
2019-04-25T06:34:20.012Z,21.68
2019-04-25T06:35:54.766Z,31.40
2019-04-25T06:37:30.341Z,22.55
2019-04-25T06:39:06.977Z,23.00
2019-04-25T06:40:41.208Z,20.70
2019-04-25T06:42:15.441Z,21.70
2019-04-25T06:43:51.360Z,25.77
2019-04-25T06:45:29.002Z,16.17
2019-04-25T06:47:17.032Z,20.45
2019-04-25T06:48:56.155Z,19.10
2019-04-25T06:50:30.428Z,17.65
2019-04-25T06:52:04.668Z,25.62
2019-04-25T06:53:38.965Z,20.52
2019-04-25T06:55:14.090Z,28.35
2019-04-25T06:56:48.760Z,20.60
2019-04-25T06:58:25.641Z,21.95
2019-04-25T06:59:58.857Z,32.50
2019-04-25T07:01:34.627Z,20.32
2019-04-25T07:03:09.052Z,30.97
2019-04-25T07:04:43.536Z,28.32
2019-04-25T07:06:19.156Z,26.57
2019-04-25T07:07:53.480Z,31.48
2019-04-25T07:09:29.535Z,19.60
2019-04-25T07:11:04.201Z,20.88
2019-04-25T07:12:38.432Z,23.22
2019-04-25T07:14:14.236Z,31.45
2019-04-25T07:15:48.714Z,19.85
2019-04-25T07:17:24.166Z,24.80
2019-04-25T07:18:58.824Z,19.23
2019-04-25T07:20:34.537Z,27.15
2019-04-25T07:22:09.081Z,24.65
2019-04-25T07:23:46.145Z,25.30
2019-04-25T07:25:20.700Z,18.60
2019-04-25T07:27:13.770Z,13.72
2019-04-25T07:28:49.667Z,24.50
2019-04-25T07:30:49.986Z,23.42
2019-04-25T07:32:18.332Z,12.47
2019-04-25T07:33:54.184Z,14.90
2019-04-25T07:35:29.026Z,14.10
2019-04-25T07:37:03.516Z,17.15
2019-04-25T07:38:37.675Z,16.50
2019-04-25T07:40:13.935Z,15.30
2019-04-25T07:41:48.655Z,16.82
2019-04-25T07:43:23.384Z,16.62
2019-04-25T07:44:58.099Z,13.00
2019-04-25T07:46:37.253Z,11.85
2019-04-25T07:48:08.588Z,18.80
2019-04-25T07:49:43.383Z,15.30
2019-04-25T07:51:17.568Z,15.35
2019-04-25T07:52:51.766Z,10.25
2019-04-25T07:54:27.530Z,23.27
2019-04-25T07:56:01.882Z,13.58
2019-04-25T07:57:36.304Z,13.68
2019-04-25T07:59:10.633Z,10.45
2019-04-25T08:00:44.844Z,12.55
2019-04-25T08:02:19.120Z,20.85
2019-04-25T08:03:53.750Z,16.07
2019-04-25T08:05:29.495Z,15.05
2019-04-25T08:07:04.214Z,15.38
2019-04-25T08:08:38.358Z,11.25
2019-04-25T08:10:14.742Z,13.50
2019-04-25T08:11:48.989Z,13.40
2019-04-25T08:13:24.167Z,12.13
2019-04-25T08:15:15.356Z,19.20
2019-04-25T08:16:51.216Z,15.63
2019-04-25T08:18:25.572Z,10.63
2019-04-25T08:19:59.779Z,15.95
2019-04-25T08:21:34.457Z,13.55
2019-04-25T08:23:09.913Z,18.42
2019-04-25T08:24:44.285Z,12.50
2019-04-25T08:26:18.545Z,17.15
2019-04-25T08:27:53.530Z,15.28
2019-04-25T08:29:28.620Z,13.35
2019-04-25T08:31:03.575Z,11.90
2019-04-25T08:32:37.954Z,14.65
2019-04-25T08:34:12.166Z,13.00
2019-04-25T08:36:03.432Z,13.58
2019-04-25T08:37:24.031Z,14.90
2019-04-25T08:38:58.375Z,14.47
2019-04-25T08:40:35.007Z,15.83
2019-04-25T08:42:08.453Z,11.28
2019-04-25T08:43:44.952Z,12.07
2019-04-25T08:45:19.292Z,13.28
2019-04-25T08:46:54.009Z,12.53
2019-04-25T08:48:30.478Z,17.87
2019-04-25T08:50:26.694Z,14.45
2019-04-25T08:51:55.553Z,9.08
2019-04-25T08:53:31.579Z,12.58
2019-04-25T08:55:09.072Z,10.18
2019-04-25T08:56:43.972Z,17.12
2019-04-25T08:58:37.722Z,13.28
2019-04-25T09:00:17.624Z,12.98
2019-04-25T09:01:53.613Z,10.60
2019-04-25T09:03:45.621Z,16.85
2019-04-25T09:05:24.453Z,14.10
2019-04-25T09:06:58.737Z,13.35
2019-04-25T09:08:35.471Z,15.88
2019-04-25T09:10:09.256Z,17.23
2019-04-25T09:11:44.625Z,14.40
2019-04-25T09:13:19.444Z,12.88
2019-04-25T09:14:54.216Z,17.95
2019-04-25T09:16:28.632Z,14.58
2019-04-25T09:18:04.052Z,16.20
2019-04-25T09:19:38.504Z,7.55
2019-04-25T09:21:13.762Z,12.53
2019-04-25T09:22:48.187Z,13.55
2019-04-25T09:24:22.398Z,8.55
2019-04-25T09:25:56.608Z,17.12
2019-04-25T09:27:30.873Z,10.05
2019-04-25T09:29:16.925Z,10.38
2019-04-25T09:30:42.433Z,14.38
2019-04-25T09:32:18.753Z,8.10
2019-04-25T09:33:54.604Z,8.15
2019-04-25T09:35:28.855Z,11.40
2019-04-25T09:37:03.553Z,12.23
2019-04-25T09:38:37.769Z,9.40
2019-04-25T09:40:15.836Z,14.10
2019-04-25T09:41:50.121Z,12.50
2019-04-25T09:43:24.401Z,9.23
2019-04-25T09:45:05.964Z,13.18
2019-04-25T09:46:40.788Z,9.90
2019-04-25T09:48:34.356Z,10.90
2019-04-25T09:50:10.980Z,10.40
2019-04-25T09:51:47.032Z,12.20
2019-04-25T09:53:23.776Z,11.38
2019-04-25T09:54:58.821Z,14.38
2019-04-25T09:56:34.706Z,14.38
2019-04-25T09:58:10.556Z,18.12
2019-04-25T09:59:46.257Z,11.60
2019-04-25T10:01:21.618Z,15.32
2019-04-25T10:02:56.072Z,10.70
2019-04-25T10:04:30.280Z,9.05
2019-04-25T10:06:05.171Z,15.32
2019-04-25T10:07:39.451Z,19.07
2019-04-25T10:09:15.596Z,13.15
2019-04-25T10:10:49.620Z,11.78
2019-04-25T10:12:23.825Z,12.58
2019-04-25T10:14:19.357Z,10.72
2019-04-25T10:15:59.098Z,16.45
2019-04-25T10:17:33.793Z,15.10
2019-04-25T10:19:08.322Z,13.18
2019-04-25T10:20:43.480Z,9.73
2019-04-25T10:22:18.487Z,8.48
2019-04-25T10:23:53.481Z,11.03
2019-04-25T10:25:27.789Z,6.80
2019-04-25T10:27:03.643Z,11.15
2019-04-25T10:28:39.615Z,9.65
2019-04-25T10:30:20.557Z,21.48
2019-04-25T10:31:55.453Z,11.43
2019-04-25T10:33:28.664Z,14.68
2019-04-25T10:35:03.185Z,11.70
2019-04-25T10:36:39.778Z,14.90
2019-04-25T10:38:14.335Z,12.90
2019-04-25T10:39:48.953Z,10.20
2019-04-25T10:41:24.479Z,20.27
2019-04-25T10:42:58.816Z,10.55
2019-04-25T10:44:33.838Z,16.42
2019-04-25T10:46:10.977Z,14.38
2019-04-25T10:47:45.323Z,13.10
2019-04-25T10:49:19.816Z,10.98
2019-04-25T10:50:55.721Z,10.28
2019-04-25T10:52:30.062Z,10.30
2019-04-25T10:54:04.426Z,10.85
2019-04-25T10:55:38.616Z,16.27
2019-04-25T10:57:12.833Z,13.68
2019-04-25T10:58:47.932Z,12.55
2019-04-25T11:00:28.476Z,8.45
2019-04-25T11:02:04.026Z,7.87
2019-04-25T11:03:41.193Z,14.73
2019-04-25T11:05:17.163Z,13.43
2019-04-25T11:06:51.746Z,12.13
2019-04-25T11:08:26.125Z,10.20
2019-04-25T11:10:00.332Z,10.10
2019-04-25T11:11:35.943Z,10.70
2019-04-25T11:13:10.196Z,9.65
2019-04-25T11:14:44.412Z,13.72
2019-04-25T11:16:18.700Z,14.63
2019-04-25T11:17:54.834Z,10.50
2019-04-25T11:19:28.868Z,11.43
2019-04-25T11:21:04.301Z,11.75
2019-04-25T11:22:39.435Z,11.25
2019-04-25T11:24:14.288Z,12.93
2019-04-25T11:25:48.765Z,12.35
2019-04-25T11:27:23.954Z,12.82
2019-04-25T11:28:58.619Z,14.25
2019-04-25T11:30:33.112Z,10.65
2019-04-25T11:32:07.378Z,9.23
2019-04-25T11:33:41.592Z,10.60
2019-04-25T11:35:15.909Z,14.83
2019-04-25T11:36:50.737Z,15.10
2019-04-25T11:38:42.674Z,18.50
2019-04-25T11:40:19.966Z,21.85
2019-04-25T11:41:55.540Z,21.57
2019-04-25T11:43:30.183Z,13.53
2019-04-25T11:45:07.621Z,14.00
2019-04-25T11:46:43.448Z,13.00
2019-04-25T11:48:17.820Z,20.30
2019-04-25T11:49:52.158Z,15.40
2019-04-25T11:51:26.369Z,15.03
2019-04-25T11:53:00.974Z,16.42
2019-04-25T11:54:35.224Z,16.02
2019-04-25T11:56:09.444Z,20.82
2019-04-25T11:57:47.334Z,20.10
2019-04-25T11:59:19.613Z,12.70
2019-04-25T12:00:56.460Z,11.50
2019-04-25T12:02:30.228Z,16.30
2019-04-25T12:04:04.580Z,14.53
2019-04-25T12:05:38.793Z,13.35
2019-04-25T12:07:14.339Z,19.67
2019-04-25T12:08:49.095Z,19.77
2019-04-25T12:10:24.544Z,15.20
2019-04-25T12:11:58.824Z,21.02
2019-04-25T12:13:34.534Z,19.82
2019-04-25T12:15:08.956Z,21.52
2019-04-25T12:16:46.153Z,16.50
2019-04-25T12:18:19.073Z,12.43
2019-04-25T12:19:54.654Z,14.55
2019-04-25T12:21:29.336Z,15.55
2019-04-25T12:23:09.981Z,17.67
2019-04-25T12:24:40.013Z,14.95
2019-04-25T12:26:14.350Z,18.87
2019-04-25T12:27:49.960Z,18.15
2019-04-25T12:29:24.507Z,16.95
2019-04-25T12:30:58.832Z,15.83
2019-04-25T12:32:35.033Z,13.70
2019-04-25T12:34:08.889Z,16.80
2019-04-25T12:35:43.680Z,17.02
2019-04-25T12:37:18.585Z,14.38
2019-04-25T12:38:54.536Z,17.60
2019-04-25T12:40:28.714Z,12.82
2019-04-25T12:42:04.309Z,16.40
2019-04-25T12:43:40.464Z,17.95
2019-04-25T12:45:16.462Z,14.47
2019-04-25T12:46:52.830Z,18.95
2019-04-25T12:48:28.184Z,17.27
2019-04-25T12:50:03.966Z,11.33
2019-04-25T12:51:38.516Z,18.10
2019-04-25T12:53:13.953Z,16.07
2019-04-25T12:54:49.167Z,15.03
2019-04-25T12:56:25.080Z,13.75
2019-04-25T12:57:59.351Z,16.97
2019-04-25T12:59:33.563Z,17.77
2019-04-25T13:01:08.392Z,16.10
2019-04-25T13:02:44.591Z,14.20
2019-04-25T13:04:18.782Z,17.00
2019-04-25T13:05:54.023Z,16.20
2019-04-25T13:07:28.332Z,11.63
2019-04-25T13:09:04.271Z,16.05
2019-04-25T13:10:38.592Z,18.52
2019-04-25T13:12:14.977Z,28.90
2019-04-25T13:13:49.572Z,14.65
2019-04-25T13:15:25.796Z,16.55
2019-04-25T13:17:00.063Z,18.25
2019-04-25T13:18:34.284Z,16.73
2019-04-25T13:20:09.003Z,25.95
2019-04-25T13:21:43.343Z,18.62
2019-04-25T13:23:17.680Z,19.25
2019-04-25T13:24:51.887Z,15.75
2019-04-25T13:26:28.076Z,18.05
2019-04-25T13:28:09.883Z,21.15
2019-04-25T13:29:54.875Z,23.80
2019-04-25T13:31:36.473Z,19.10
2019-04-25T13:33:27.725Z,18.50
2019-04-25T13:35:23.403Z,26.85
2019-04-25T13:36:58.135Z,15.93
2019-04-25T13:38:32.630Z,17.77
2019-04-25T13:40:08.513Z,18.57
2019-04-25T13:41:44.620Z,22.40
2019-04-25T13:43:19.005Z,18.10
2019-04-25T13:44:54.305Z,18.98
2019-04-25T13:46:29.160Z,22.93
2019-04-25T13:48:05.010Z,22.52
2019-04-25T13:49:39.273Z,20.45
2019-04-25T13:51:14.158Z,17.12
2019-04-25T13:52:48.544Z,22.40
2019-04-25T13:54:24.039Z,17.23
2019-04-25T13:55:58.681Z,20.20
2019-04-25T13:57:33.201Z,20.37
2019-04-25T13:59:08.607Z,24.52
2019-04-25T14:00:44.201Z,27.42
2019-04-25T14:02:18.644Z,21.45
2019-04-25T14:03:54.265Z,15.58
2019-04-25T14:05:28.669Z,22.52
2019-04-25T14:07:02.981Z,21.97
2019-04-25T14:08:37.185Z,15.48
2019-04-25T14:10:11.617Z,20.02
2019-04-25T14:11:46.004Z,26.87
2019-04-25T14:13:21.161Z,13.55
2019-04-25T14:14:56.296Z,16.65
2019-04-25T14:16:34.981Z,20.08
2019-04-25T14:18:13.787Z,14.87
2019-04-25T14:20:06.264Z,15.13
2019-04-25T14:21:40.559Z,14.63
2019-04-25T14:23:15.156Z,16.62
2019-04-25T14:24:49.388Z,18.52
2019-04-25T14:26:25.090Z,17.67
2019-04-25T14:27:59.272Z,19.35
2019-04-25T14:29:33.536Z,17.25
2019-04-25T14:31:09.456Z,13.95
2019-04-25T14:32:43.740Z,17.42
2019-04-25T14:34:17.969Z,20.50
2019-04-25T14:35:53.340Z,15.30
2019-04-25T14:37:31.774Z,19.30
2019-04-25T14:39:05.516Z,27.93
2019-04-25T14:40:42.165Z,13.95
2019-04-25T14:42:15.593Z,18.23
2019-04-25T14:43:49.847Z,11.45
2019-04-25T14:45:24.464Z,25.72
2019-04-25T14:47:00.378Z,17.75
2019-04-25T14:48:34.633Z,24.63
2019-04-25T14:50:09.144Z,18.02
2019-04-25T14:51:43.432Z,17.82
2019-04-25T14:53:17.668Z,16.73
2019-04-25T14:54:58.984Z,21.70
2019-04-25T14:56:46.682Z,17.57
2019-04-25T14:58:22.884Z,21.75
2019-04-25T14:59:57.756Z,18.42
2019-04-25T15:01:44.006Z,23.92
2019-04-25T15:03:08.132Z,18.37
2019-04-25T15:04:42.721Z,20.45
2019-04-25T15:06:17.000Z,18.95
2019-04-25T15:07:51.262Z,11.60
2019-04-25T15:09:26.730Z,20.12
2019-04-25T15:11:01.160Z,17.70
2019-04-25T15:12:35.380Z,17.10
2019-04-25T15:14:09.674Z,24.80
2019-04-25T15:15:43.880Z,15.53
2019-04-25T15:17:18.710Z,16.42
2019-04-25T15:18:52.931Z,19.35
2019-04-25T15:20:28.253Z,19.82
2019-04-25T15:22:02.781Z,25.97
2019-04-25T15:23:37.000Z,20.10
2019-04-25T15:25:11.221Z,14.90
2019-04-25T15:26:45.520Z,20.60
2019-04-25T15:28:19.777Z,14.10
2019-04-25T15:29:53.999Z,13.53
2019-04-25T15:31:30.125Z,21.15
2019-04-25T15:33:04.466Z,14.73
2019-04-25T15:34:42.826Z,15.93
2019-04-25T15:36:18.673Z,18.37
2019-04-25T15:38:03.890Z,17.17
2019-04-25T15:39:58.477Z,14.90
2019-04-25T15:41:37.484Z,12.65
2019-04-25T15:43:31.461Z,16.62
2019-04-25T15:45:11.229Z,11.95
2019-04-25T15:46:47.082Z,18.87
2019-04-25T15:48:21.300Z,23.52
2019-04-25T15:49:55.508Z,16.57
2019-04-25T15:51:29.962Z,19.23
2019-04-25T15:53:04.150Z,22.27
2019-04-25T15:54:38.365Z,20.82
2019-04-25T15:56:12.575Z,18.60
2019-04-25T15:57:46.825Z,13.25
2019-04-25T15:59:21.040Z,15.23
2019-04-25T16:00:55.930Z,18.37
2019-04-25T16:02:32.393Z,19.17
2019-04-25T16:04:06.751Z,21.15
2019-04-25T16:05:41.288Z,23.12
2019-04-25T16:07:15.772Z,20.60
2019-04-25T16:08:50.063Z,25.32
2019-04-25T16:10:24.318Z,25.00
2019-04-25T16:11:58.532Z,21.45
2019-04-25T16:13:32.797Z,22.58
2019-04-25T16:15:08.489Z,23.98
2019-04-25T16:16:42.701Z,19.70
2019-04-25T16:18:16.977Z,19.07
2019-04-25T16:19:51.245Z,22.32
2019-04-25T16:21:25.542Z,15.13
2019-04-25T16:23:05.394Z,16.20
2019-04-25T16:24:39.755Z,20.88
2019-04-25T16:26:14.473Z,17.02
2019-04-25T16:27:48.691Z,17.02
2019-04-25T16:29:22.917Z,19.65
2019-04-25T16:30:57.188Z,17.87
2019-04-25T16:32:32.386Z,19.25
2019-04-25T16:34:06.874Z,23.22
2019-04-25T16:35:41.153Z,20.43
2019-04-25T16:37:15.367Z,19.15
2019-04-25T16:38:49.629Z,21.25
2019-04-25T16:40:24.221Z,16.05
2019-04-25T16:41:58.504Z,18.40
2019-04-25T16:43:35.201Z,20.48
2019-04-25T16:45:09.594Z,20.00
2019-04-25T16:46:44.128Z,17.52
2019-04-25T16:48:18.804Z,27.32
2019-04-25T16:49:53.735Z,17.55
2019-04-25T16:51:28.334Z,23.27
2019-04-25T16:53:02.936Z,17.25
2019-04-25T16:54:38.051Z,20.32
2019-04-25T16:56:12.917Z,23.62
2019-04-25T16:57:47.127Z,20.40
2019-04-25T16:59:21.362Z,23.85
2019-04-25T17:00:57.242Z,18.05
2019-04-25T17:02:35.730Z,27.02
2019-04-25T17:04:08.345Z,20.70
2019-04-25T17:05:43.029Z,18.02
2019-04-25T17:07:20.484Z,21.07
2019-04-25T17:08:54.783Z,22.50
2019-04-25T17:10:28.992Z,22.50
2019-04-25T17:12:03.592Z,24.40
2019-04-25T17:13:39.498Z,18.17
2019-04-25T17:15:32.077Z,23.15
2019-04-25T17:17:16.941Z,24.32
2019-04-25T17:19:05.292Z,24.47
2019-04-25T17:20:41.780Z,27.15
2019-04-25T17:22:16.044Z,26.55
2019-04-25T17:23:50.316Z,28.15
2019-04-25T17:25:25.092Z,27.82
2019-04-25T17:26:59.334Z,25.70
2019-04-25T17:28:35.248Z,33.80
2019-04-25T17:30:11.690Z,49.00
2019-04-25T17:31:59.421Z,37.63
2019-04-25T17:33:44.482Z,39.05
2019-04-25T17:35:26.479Z,31.75
2019-04-25T17:37:17.335Z,25.77
2019-04-25T17:38:53.202Z,26.95
2019-04-25T17:40:32.794Z,30.27
2019-04-25T17:42:08.097Z,32.30
2019-04-25T17:43:42.421Z,33.05
2019-04-25T17:45:18.287Z,39.03
2019-04-25T17:46:52.505Z,27.37
2019-04-25T17:48:26.740Z,38.28
2019-04-25T17:50:01.026Z,34.25
2019-04-25T17:51:35.263Z,24.98
2019-04-25T17:53:09.488Z,28.83
2019-04-25T17:54:43.697Z,31.73
2019-04-25T17:56:18.096Z,27.27
2019-04-25T17:57:52.321Z,29.20
2019-04-25T17:59:26.581Z,29.18
2019-04-25T18:01:00.873Z,25.82
2019-04-25T18:02:35.100Z,23.67
2019-04-25T18:04:09.326Z,24.02
2019-04-25T18:05:44.565Z,23.18
2019-04-25T18:07:18.883Z,22.85
2019-04-25T18:08:53.075Z,23.83
2019-04-25T18:10:27.563Z,24.65
2019-04-25T18:12:01.820Z,32.93
2019-04-25T18:13:38.500Z,88.47
2019-04-25T18:15:13.784Z,119.35
2019-04-25T18:16:49.382Z,124.22
2019-04-25T18:18:41.437Z,86.53
2019-04-25T18:20:20.391Z,89.92
2019-04-25T18:21:56.257Z,87.67
2019-04-25T18:23:44.001Z,76.85
2019-04-25T18:25:31.812Z,63.35
2019-04-25T18:27:19.621Z,60.83
2019-04-25T18:29:07.486Z,48.85
2019-04-25T18:30:43.249Z,45.83
2019-04-25T18:32:17.792Z,47.17
2019-04-25T18:33:53.672Z,52.67
2019-04-25T18:35:30.081Z,37.33
2019-04-25T18:37:06.380Z,30.70
2019-04-25T18:38:44.741Z,30.10
2019-04-25T18:40:32.796Z,26.80
2019-04-25T18:42:24.680Z,26.48
2019-04-25T18:44:00.545Z,28.87
2019-04-25T18:45:37.470Z,26.50
2019-04-25T18:47:12.332Z,24.98
2019-04-25T18:48:46.975Z,23.80
2019-04-25T18:50:22.860Z,22.45
2019-04-25T18:51:58.811Z,33.30
2019-04-25T18:53:40.966Z,25.92
2019-04-25T18:55:19.895Z,27.30
2019-04-25T18:57:04.309Z,27.20
2019-04-25T18:58:40.165Z,20.23
2019-04-25T19:00:19.867Z,22.55
2019-04-25T19:02:07.280Z,25.30
2019-04-25T19:03:55.216Z,30.75
2019-04-25T19:05:31.068Z,31.25
2019-04-25T19:07:05.760Z,39.13
2019-04-25T19:08:40.829Z,30.20
2019-04-25T19:10:16.668Z,22.37
2019-04-25T19:11:51.341Z,25.05
2019-04-25T19:13:25.892Z,48.75
2019-04-25T19:15:00.114Z,60.75
2019-04-25T19:16:35.979Z,59.98
2019-04-25T19:18:10.421Z,53.85
2019-04-25T19:19:45.589Z,40.43
2019-04-25T19:21:20.110Z,46.55
2019-04-25T19:22:54.329Z,59.80
2019-04-25T19:24:28.641Z,46.25
2019-04-25T19:26:03.005Z,54.18
2019-04-25T19:27:37.232Z,40.05
2019-04-25T19:29:11.467Z,62.05
2019-04-25T19:30:45.756Z,43.78
2019-04-25T19:32:20.016Z,45.03
2019-04-25T19:33:54.308Z,41.18
2019-04-25T19:35:28.523Z,33.90
2019-04-25T19:37:02.826Z,34.92
2019-04-25T19:38:37.099Z,39.95
2019-04-25T19:40:25.669Z,31.52
2019-04-25T19:42:17.757Z,41.77
2019-04-25T19:43:53.653Z,45.35
2019-04-25T19:45:27.988Z,36.33
2019-04-25T19:47:03.836Z,37.60
2019-04-25T19:48:38.063Z,40.75
2019-04-25T19:50:12.432Z,38.80
2019-04-25T19:51:47.265Z,38.85
2019-04-25T19:53:21.760Z,43.38
2019-04-25T19:54:55.980Z,35.63
2019-04-25T19:56:30.308Z,31.65
2019-04-25T19:58:04.936Z,36.15
2019-04-25T19:59:40.743Z,42.25
2019-04-25T20:01:15.077Z,40.38
2019-04-25T20:02:51.005Z,42.00
2019-04-25T20:04:32.945Z,35.50
2019-04-25T20:06:10.277Z,45.25
2019-04-25T20:07:51.284Z,58.52
2019-04-25T20:09:44.858Z,74.58
2019-04-25T20:11:21.561Z,75.28
2019-04-25T20:12:55.864Z,64.77
2019-04-25T20:14:30.077Z,73.17
2019-04-25T20:16:04.367Z,73.80
2019-04-25T20:17:38.646Z,70.83
2019-04-25T20:19:12.850Z,71.67
2019-04-25T20:20:47.796Z,82.90
2019-04-25T20:22:22.320Z,91.05
2019-04-25T20:23:56.550Z,74.00
2019-04-25T20:25:30.781Z,65.22
2019-04-25T20:27:05.073Z,36.13
2019-04-25T20:28:39.358Z,39.40
2019-04-25T20:30:14.456Z,33.88
2019-04-25T20:31:48.696Z,32.23
2019-04-25T20:33:22.881Z,33.85
2019-04-25T20:34:57.225Z,25.00
2019-04-25T20:36:31.444Z,31.40
2019-04-25T20:38:05.653Z,31.93
2019-04-25T20:39:39.875Z,26.77